createdAt,value
2022-11-25T00:01:21.892Z,14.57
2022-11-25T00:03:49.476Z,15.73
2022-11-25T00:06:18.939Z,15.37
2022-11-25T00:08:49.115Z,12.80
2022-11-25T00:11:17.082Z,11.90
2022-11-25T00:13:45.301Z,13.47
2022-11-25T00:16:15.063Z,13.87
2022-11-25T00:18:45.294Z,13.90
2022-11-25T00:21:15.007Z,16.00
2022-11-25T00:23:41.789Z,17.33
2022-11-25T00:26:11.329Z,18.90
2022-11-25T00:28:38.771Z,18.20
2022-11-25T00:31:26.507Z,15.37
2022-11-25T00:33:53.313Z,13.63
2022-11-25T00:36:28.913Z,12.33
2022-11-25T00:38:57.965Z,13.37
2022-11-25T00:41:24.854Z,12.70
2022-11-25T00:43:51.161Z,12.47
2022-11-25T00:46:17.723Z,12.93
2022-11-25T00:48:44.630Z,13.17
2022-11-25T00:51:11.251Z,13.37
2022-11-25T00:53:37.616Z,13.47
2022-11-25T00:56:04.439Z,14.90
2022-11-25T00:58:30.835Z,15.80
2022-11-25T01:01:01.929Z,16.10
2022-11-25T01:03:28.569Z,13.87
2022-11-25T01:05:54.971Z,14.07
2022-11-25T01:08:21.322Z,13.30
2022-11-25T01:10:47.879Z,14.53
2022-11-25T01:13:14.295Z,11.63
2022-11-25T01:15:40.590Z,10.63
2022-11-25T01:18:07.100Z,10.40
2022-11-25T01:20:33.388Z,11.20
2022-11-25T01:22:59.697Z,10.43
2022-11-25T01:25:26.190Z,10.83
2022-11-25T01:27:52.946Z,12.17
2022-11-25T01:30:19.295Z,12.20
2022-11-25T01:32:45.764Z,12.17
2022-11-25T01:35:12.636Z,12.13
2022-11-25T01:37:39.278Z,12.10
2022-11-25T01:40:06.416Z,11.17
2022-11-25T01:42:32.842Z,11.10
2022-11-25T01:45:38.062Z,10.80
2022-11-25T01:48:14.650Z,12.07
2022-11-25T01:50:42.351Z,10.83
2022-11-25T01:53:11.853Z,10.00
2022-11-25T01:55:43.316Z,9.30
2022-11-25T01:58:16.355Z,8.93
2022-11-25T02:00:43.388Z,8.83
2022-11-25T02:03:10.161Z,9.90
2022-11-25T02:05:46.313Z,10.37
2022-11-25T02:08:13.078Z,10.27
2022-11-25T02:10:39.558Z,9.90
2022-11-25T02:13:05.950Z,9.77
2022-11-25T02:15:34.297Z,9.90
2022-11-25T02:18:01.516Z,10.27
2022-11-25T02:20:28.424Z,10.50
2022-11-25T02:23:00.639Z,10.67
2022-11-25T02:25:31.081Z,10.53
2022-11-25T02:28:05.333Z,10.40
2022-11-25T02:30:32.892Z,10.37
2022-11-25T02:33:00.745Z,11.40
2022-11-25T02:35:52.704Z,10.27
2022-11-25T02:38:29.763Z,10.80
2022-11-25T02:41:05.676Z,9.60
2022-11-25T02:43:32.407Z,9.60
2022-11-25T02:46:02.172Z,9.63
2022-11-25T02:49:00.923Z,10.52
2022-11-25T02:51:19.951Z,10.10
2022-11-25T02:53:46.498Z,10.10
2022-11-25T02:56:15.055Z,9.13
2022-11-25T02:58:41.890Z,9.43
2022-11-25T03:01:09.441Z,9.67
2022-11-25T03:03:36.875Z,8.90
2022-11-25T03:06:03.531Z,9.67
2022-11-25T03:08:29.964Z,9.37
2022-11-25T03:10:56.477Z,9.33
2022-11-25T03:13:23.139Z,9.40
2022-11-25T03:15:49.463Z,9.07
2022-11-25T03:18:15.910Z,9.20
2022-11-25T03:20:42.429Z,9.47
2022-11-25T03:23:08.875Z,7.83
2022-11-25T03:25:36.400Z,9.70
2022-11-25T03:28:03.735Z,8.90
2022-11-25T03:30:31.412Z,8.83
2022-11-25T03:32:57.880Z,9.00
2022-11-25T03:35:24.480Z,8.80
2022-11-25T03:37:51.069Z,8.40
2022-11-25T03:40:17.770Z,8.47
2022-11-25T03:42:44.258Z,9.10
2022-11-25T03:45:12.710Z,8.37
2022-11-25T03:47:40.649Z,8.47
2022-11-25T03:50:07.811Z,9.17
2022-11-25T03:52:34.661Z,8.40
2022-11-25T03:55:01.030Z,8.07
2022-11-25T03:57:27.742Z,8.97
2022-11-25T03:59:54.332Z,8.40
2022-11-25T04:02:20.692Z,8.40
2022-11-25T04:04:47.063Z,8.63
2022-11-25T04:07:13.643Z,8.73
2022-11-25T04:09:40.062Z,9.63
2022-11-25T04:12:06.555Z,8.87
2022-11-25T04:14:33.101Z,8.53
2022-11-25T04:16:59.792Z,8.83
2022-11-25T04:19:26.372Z,12.43
2022-11-25T04:21:52.909Z,9.40
2022-11-25T04:24:19.622Z,9.93
2022-11-25T04:26:46.190Z,11.20
2022-11-25T04:29:12.905Z,12.53
2022-11-25T04:31:39.315Z,11.43
2022-11-25T04:34:05.626Z,10.83
2022-11-25T04:36:31.972Z,9.27
2022-11-25T04:38:58.589Z,9.73
2022-11-25T04:41:24.905Z,10.43
2022-11-25T04:43:51.204Z,10.00
2022-11-25T04:46:20.887Z,10.77
2022-11-25T04:48:48.665Z,9.83
2022-11-25T04:51:14.985Z,10.33
2022-11-25T04:53:41.403Z,10.00
2022-11-25T04:56:07.857Z,10.60
2022-11-25T04:58:34.186Z,11.13
2022-11-25T05:01:00.810Z,11.20
2022-11-25T05:03:27.384Z,11.60
2022-11-25T05:05:53.881Z,11.73
2022-11-25T05:08:20.598Z,12.60
2022-11-25T05:10:47.009Z,12.87
2022-11-25T05:13:13.738Z,13.63
2022-11-25T05:15:40.221Z,11.57
2022-11-25T05:18:06.688Z,10.77
2022-11-25T05:20:35.493Z,11.97
2022-11-25T05:23:01.796Z,12.87
2022-11-25T05:25:28.124Z,15.50
2022-11-25T05:27:54.475Z,11.57
2022-11-25T05:30:20.775Z,10.87
2022-11-25T05:32:47.109Z,10.43
2022-11-25T05:35:13.563Z,8.87
2022-11-25T05:37:39.904Z,9.70
2022-11-25T05:40:06.987Z,10.27
2022-11-25T05:42:33.349Z,10.00
2022-11-25T05:44:59.674Z,9.77
2022-11-25T05:47:25.982Z,12.17
2022-11-25T05:49:52.350Z,12.13
2022-11-25T05:52:18.847Z,12.43
2022-11-25T05:54:45.235Z,11.93
2022-11-25T05:57:11.693Z,11.83
2022-11-25T05:59:38.299Z,11.40
2022-11-25T06:02:04.838Z,11.40
2022-11-25T06:04:31.351Z,10.07
2022-11-25T06:06:57.697Z,10.77
2022-11-25T06:09:24.039Z,11.13
2022-11-25T06:11:51.167Z,10.13
2022-11-25T06:14:17.810Z,11.00
2022-11-25T06:16:44.228Z,11.70
2022-11-25T06:19:10.579Z,10.53
2022-11-25T06:21:37.244Z,10.37
2022-11-25T06:24:04.223Z,9.73
2022-11-25T06:26:30.669Z,10.63
2022-11-25T06:28:57.101Z,10.10
2022-11-25T06:31:25.539Z,10.37
2022-11-25T06:33:54.635Z,11.40
2022-11-25T06:36:22.187Z,10.97
2022-11-25T06:38:51.734Z,11.17
2022-11-25T06:41:22.270Z,10.70
2022-11-25T06:43:48.792Z,11.55
2022-11-25T06:46:24.127Z,10.77
2022-11-25T06:48:52.027Z,11.27
2022-11-25T06:51:18.564Z,11.50
2022-11-25T06:53:45.224Z,12.03
2022-11-25T06:56:15.168Z,14.50
2022-11-25T06:58:42.771Z,14.33
2022-11-25T07:01:15.536Z,13.60
2022-11-25T07:03:43.776Z,12.60
2022-11-25T07:06:12.747Z,13.07
2022-11-25T07:08:39.529Z,12.23
2022-11-25T07:11:16.206Z,12.83
2022-11-25T07:13:42.759Z,13.17
2022-11-25T07:16:11.577Z,13.90
2022-11-25T07:18:39.242Z,13.40
2022-11-25T07:21:11.568Z,15.37
2022-11-25T07:23:39.057Z,12.60
2022-11-25T07:26:08.131Z,13.63
2022-11-25T07:28:35.734Z,13.13
2022-11-25T07:31:27.180Z,14.43
2022-11-25T07:34:06.313Z,13.97
2022-11-25T07:36:34.721Z,13.87
2022-11-25T07:39:06.886Z,15.57
2022-11-25T07:41:33.534Z,14.13
2022-11-25T07:44:04.436Z,13.70
2022-11-25T07:46:36.857Z,13.97
2022-11-25T07:49:07.255Z,13.17
2022-11-25T07:51:34.953Z,12.98
2022-11-25T07:54:05.047Z,14.27
2022-11-25T07:56:33.102Z,14.55
2022-11-25T07:58:59.560Z,14.33
2022-11-25T08:01:26.139Z,14.13
2022-11-25T08:03:53.035Z,12.43
2022-11-25T08:06:22.114Z,13.47
2022-11-25T08:08:49.706Z,14.63
2022-11-25T08:11:18.993Z,13.63
2022-11-25T08:13:45.644Z,13.20
2022-11-25T08:16:13.980Z,11.93
2022-11-25T08:18:40.600Z,12.23
2022-11-25T08:21:09.652Z,12.40
2022-11-25T08:23:39.695Z,14.00
2022-11-25T08:26:12.546Z,13.30
2022-11-25T08:28:40.751Z,12.48
2022-11-25T08:31:10.022Z,11.73
2022-11-25T08:33:37.743Z,10.88
2022-11-25T08:36:05.030Z,11.63
2022-11-25T08:38:32.038Z,11.80
2022-11-25T08:40:59.134Z,11.93
2022-11-25T08:43:29.502Z,11.55
2022-11-25T08:45:56.368Z,12.98
2022-11-25T08:48:22.694Z,14.30
2022-11-25T08:50:54.267Z,14.70
2022-11-25T08:53:21.495Z,13.17
2022-11-25T08:55:48.274Z,13.57
2022-11-25T08:58:14.721Z,15.00
2022-11-25T09:00:43.164Z,13.83
2022-11-25T09:03:10.658Z,14.37
2022-11-25T09:05:42.118Z,15.20
2022-11-25T09:08:09.887Z,13.03
2022-11-25T09:10:37.698Z,13.77
2022-11-25T09:13:05.128Z,13.63
2022-11-25T09:15:32.713Z,13.63
2022-11-25T09:18:02.029Z,13.98
2022-11-25T09:20:28.837Z,13.60
2022-11-25T09:22:55.418Z,14.38
2022-11-25T09:25:22.661Z,12.63
2022-11-25T09:27:49.168Z,11.88
2022-11-25T09:30:15.940Z,12.85
2022-11-25T09:32:43.189Z,14.10
2022-11-25T09:35:10.231Z,12.27
2022-11-25T09:37:36.591Z,11.70
2022-11-25T09:40:03.137Z,10.88
2022-11-25T09:42:51.423Z,10.90
2022-11-25T09:45:25.537Z,11.38
2022-11-25T09:48:05.495Z,9.82
2022-11-25T09:50:56.887Z,11.82
2022-11-25T09:53:41.805Z,12.27
2022-11-25T09:56:49.709Z,11.82
2022-11-25T09:59:24.280Z,12.43
2022-11-25T10:01:55.984Z,12.48
2022-11-25T10:04:46.425Z,11.70
2022-11-25T10:07:28.072Z,14.63
2022-11-25T10:09:55.930Z,9.95
2022-11-25T10:12:30.219Z,9.63
2022-11-25T10:15:23.513Z,8.57
2022-11-25T10:17:53.122Z,8.15
2022-11-25T10:20:23.707Z,9.02
2022-11-25T10:23:15.250Z,8.20
2022-11-25T10:25:46.168Z,7.90
2022-11-25T10:30:50.910Z,7.90
2022-11-25T10:33:32.353Z,7.28
2022-11-25T10:36:12.943Z,8.07
2022-11-25T10:38:59.267Z,8.45
2022-11-25T10:41:29.700Z,9.00
2022-11-25T10:43:56.333Z,7.05
2022-11-25T10:47:12.789Z,7.32
2022-11-25T10:49:59.566Z,7.45
2022-11-25T10:52:29.546Z,7.00
2022-11-25T10:54:58.092Z,7.30
2022-11-25T10:57:29.644Z,7.63
2022-11-25T10:59:58.652Z,7.93
2022-11-25T11:02:34.819Z,7.68
2022-11-25T11:05:10.441Z,6.85
2022-11-25T11:07:40.629Z,7.13
2022-11-25T11:10:21.930Z,7.32
2022-11-25T11:13:00.576Z,7.35
2022-11-25T11:15:29.794Z,7.68
2022-11-25T11:17:57.981Z,7.97
2022-11-25T11:20:27.172Z,8.27
2022-11-25T11:23:07.021Z,10.48
2022-11-25T11:25:37.378Z,8.20
2022-11-25T11:28:35.447Z,8.30
2022-11-25T11:31:19.966Z,8.43
2022-11-25T11:34:10.688Z,7.97
2022-11-25T11:37:00.083Z,8.48
2022-11-25T11:40:06.437Z,7.57
2022-11-25T11:42:44.539Z,8.07
2022-11-25T11:45:25.846Z,7.70
2022-11-25T11:48:20.495Z,8.88
2022-11-25T11:51:07.633Z,7.97
2022-11-25T11:53:52.201Z,8.45
2022-11-25T11:56:54.830Z,8.55
2022-11-25T11:59:47.834Z,7.80
2022-11-25T12:02:43.342Z,7.60
2022-11-25T12:05:09.628Z,7.40
2022-11-25T12:07:54.990Z,8.38
2022-11-25T12:10:35.676Z,8.07
2022-11-25T12:13:18.845Z,9.73
2022-11-25T12:16:08.940Z,8.43
2022-11-25T12:18:47.598Z,8.63
2022-11-25T12:21:41.597Z,9.25
2022-11-25T12:24:30.035Z,10.88
2022-11-25T12:27:08.846Z,10.82
2022-11-25T12:29:47.143Z,11.35
2022-11-25T12:32:51.992Z,11.68
2022-11-25T12:35:18.940Z,12.52
2022-11-25T12:38:21.894Z,10.45
2022-11-25T12:40:59.635Z,10.02
2022-11-25T12:43:50.772Z,10.18
2022-11-25T12:46:24.358Z,10.73
2022-11-25T12:48:53.474Z,13.88
2022-11-25T12:51:31.255Z,14.48
2022-11-25T12:54:17.626Z,12.18
2022-11-25T12:57:05.711Z,12.55
2022-11-25T12:59:46.292Z,12.45
2022-11-25T13:02:36.829Z,11.63
2022-11-25T13:05:40.244Z,13.70
2022-11-25T13:08:22.289Z,12.60
2022-11-25T13:11:23.273Z,11.73
2022-11-25T13:13:53.185Z,11.35
2022-11-25T13:16:21.692Z,12.05
2022-11-25T13:18:49.672Z,11.70
2022-11-25T13:21:21.162Z,11.25
2022-11-25T13:23:50.472Z,12.65
2022-11-25T13:26:28.878Z,11.45
2022-11-25T13:29:15.472Z,10.57
2022-11-25T13:32:07.507Z,9.70
2022-11-25T13:34:37.110Z,9.20
2022-11-25T13:37:33.552Z,9.43
2022-11-25T13:40:36.106Z,10.27
2022-11-25T13:43:02.814Z,10.50
2022-11-25T13:45:42.239Z,11.05
2022-11-25T13:48:24.527Z,10.45
2022-11-25T13:51:10.600Z,10.32
2022-11-25T13:53:38.023Z,12.85
2022-11-25T13:56:31.210Z,12.65
2022-11-25T13:59:09.987Z,12.13
2022-11-25T14:01:40.422Z,11.60
2022-11-25T14:04:14.275Z,13.38
2022-11-25T14:07:06.277Z,14.23
2022-11-25T14:09:48.405Z,13.52
2022-11-25T14:12:45.843Z,15.43
2022-11-25T14:15:47.902Z,13.02
2022-11-25T14:24:54.634Z,10.77
2022-11-25T14:27:28.527Z,11.30
2022-11-25T14:30:05.723Z,11.18
2022-11-25T14:32:42.526Z,9.55
2022-11-25T14:35:15.571Z,8.63
2022-11-25T14:38:11.459Z,10.00
2022-11-25T14:40:57.910Z,8.85
2022-11-25T14:43:25.893Z,8.45
2022-11-25T14:46:21.736Z,8.68
2022-11-25T14:49:00.207Z,7.82
2022-11-25T14:51:37.872Z,8.07
2022-11-25T14:54:08.224Z,8.75
2022-11-25T14:56:36.412Z,7.43
2022-11-25T14:59:03.301Z,7.53
2022-11-25T15:01:35.170Z,9.27
2022-11-25T15:04:08.014Z,8.63
2022-11-25T15:06:42.941Z,9.25
2022-11-25T15:09:40.651Z,13.25
2022-11-25T15:12:14.290Z,10.23
2022-11-25T15:14:43.690Z,8.98
2022-11-25T15:17:30.787Z,7.75
2022-11-25T15:20:04.457Z,8.27
2022-11-25T15:22:30.914Z,8.43
2022-11-25T15:25:09.212Z,8.30
2022-11-25T15:27:44.232Z,9.15
2022-11-25T15:30:28.832Z,8.30
2022-11-25T15:32:57.067Z,8.60
2022-11-25T15:35:26.107Z,8.20
2022-11-25T15:37:52.619Z,9.43
2022-11-25T15:40:37.439Z,9.13
2022-11-25T15:43:22.869Z,8.05
2022-11-25T15:45:51.822Z,7.88
2022-11-25T15:48:37.333Z,9.75
2022-11-25T15:51:14.066Z,9.98
2022-11-25T15:53:42.847Z,11.52
2022-11-25T15:56:13.125Z,12.88
2022-11-25T15:58:42.803Z,11.73
2022-11-25T16:01:15.307Z,11.55
2022-11-25T16:03:44.858Z,12.27
2022-11-25T16:06:21.196Z,12.75
2022-11-25T16:08:56.073Z,12.45
2022-11-25T16:11:24.734Z,12.00
2022-11-25T16:13:55.102Z,10.68
2022-11-25T16:16:29.995Z,10.27
2022-11-25T16:19:02.329Z,10.35
2022-11-25T16:21:30.405Z,11.38
2022-11-25T16:24:12.827Z,9.75
2022-11-25T16:27:00.019Z,9.13
2022-11-25T16:29:31.791Z,9.82
2022-11-25T16:31:59.721Z,10.27
2022-11-25T16:34:26.265Z,9.23
2022-11-25T16:36:53.515Z,8.85
2022-11-25T16:39:20.093Z,10.38
2022-11-25T16:41:56.655Z,9.18
2022-11-25T16:44:25.415Z,9.82
2022-11-25T16:46:52.139Z,8.82
2022-11-25T16:49:20.092Z,9.68
2022-11-25T16:51:46.514Z,10.13
2022-11-25T16:54:12.993Z,9.23
2022-11-25T16:56:42.958Z,9.57
2022-11-25T16:59:29.149Z,9.73
2022-11-25T17:01:56.195Z,9.93
2022-11-25T17:04:22.667Z,10.35
2022-11-25T17:07:09.824Z,12.20
2022-11-25T17:09:36.724Z,11.10
2022-11-25T17:12:04.995Z,10.80
2022-11-25T17:14:34.556Z,11.10
2022-11-25T17:17:03.441Z,14.27
2022-11-25T17:19:30.334Z,14.02
2022-11-25T17:21:57.080Z,31.17
2022-11-25T17:24:25.129Z,22.15
2022-11-25T17:27:04.797Z,19.23
2022-11-25T17:29:41.271Z,16.77
2022-11-25T17:32:12.761Z,14.55
2022-11-25T17:34:39.831Z,13.50
2022-11-25T17:37:13.583Z,14.93
2022-11-25T17:39:40.099Z,13.32
2022-11-25T17:42:06.680Z,15.05
2022-11-25T17:44:33.265Z,14.00
2022-11-25T17:46:59.694Z,14.10
2022-11-25T17:49:26.066Z,16.65
2022-11-25T17:51:53.549Z,15.80
2022-11-25T17:54:19.873Z,15.25
2022-11-25T17:56:52.169Z,14.73
2022-11-25T17:59:26.593Z,14.15
2022-11-25T18:01:53.604Z,13.88
2022-11-25T18:04:25.691Z,14.98
2022-11-25T18:06:53.074Z,15.70
2022-11-25T18:09:22.554Z,14.27
2022-11-25T18:11:56.867Z,14.93
2022-11-25T18:14:35.241Z,18.08
2022-11-25T18:17:04.816Z,16.60
2022-11-25T18:19:32.560Z,17.30
2022-11-25T18:22:14.661Z,13.82
2022-11-25T18:24:41.563Z,18.20
2022-11-25T18:27:20.485Z,17.95
2022-11-25T18:29:48.760Z,16.85
2022-11-25T18:32:15.116Z,21.13
2022-11-25T18:34:41.566Z,27.67
2022-11-25T18:37:11.814Z,28.33
2022-11-25T18:39:39.041Z,28.65
2022-11-25T18:42:07.077Z,26.42
2022-11-25T18:44:35.826Z,26.85
2022-11-25T18:47:02.251Z,27.23
2022-11-25T18:49:28.714Z,25.55
2022-11-25T18:51:55.236Z,23.33
2022-11-25T18:54:21.674Z,24.35
2022-11-25T18:56:51.395Z,21.33
2022-11-25T18:59:25.031Z,23.58
2022-11-25T19:01:51.517Z,23.10
2022-11-25T19:04:20.981Z,24.40
2022-11-25T19:06:47.729Z,23.10
2022-11-25T19:09:14.245Z,27.38
2022-11-25T19:11:49.966Z,23.10
2022-11-25T19:14:29.499Z,26.10
2022-11-25T19:17:01.759Z,25.95
2022-11-25T19:19:28.424Z,21.88
2022-11-25T19:21:54.788Z,21.17
2022-11-25T19:24:21.238Z,20.83
2022-11-25T19:26:51.248Z,24.50
2022-11-25T19:29:27.284Z,23.90
2022-11-25T19:32:00.797Z,22.50
2022-11-25T19:34:33.534Z,24.50
2022-11-25T19:37:00.272Z,25.75
2022-11-25T19:39:27.895Z,25.42
2022-11-25T19:41:58.143Z,23.95
2022-11-25T19:44:24.603Z,21.52
2022-11-25T19:47:14.419Z,23.17
2022-11-25T19:49:41.743Z,22.95
2022-11-25T19:52:15.490Z,22.08
2022-11-25T19:54:41.973Z,20.77
2022-11-25T19:57:16.498Z,18.45
2022-11-25T19:59:44.233Z,17.80
2022-11-25T20:02:14.707Z,16.63
2022-11-25T20:04:42.726Z,15.48
2022-11-25T20:07:17.413Z,16.67
2022-11-25T20:09:44.144Z,18.13
2022-11-25T20:12:24.258Z,18.38
2022-11-25T20:14:51.605Z,17.48
2022-11-25T20:17:23.417Z,18.20
2022-11-25T20:19:51.497Z,17.08
2022-11-25T20:22:25.239Z,16.10
2022-11-25T20:24:52.887Z,18.45
2022-11-25T20:27:21.010Z,19.35
2022-11-25T20:29:48.179Z,18.67
2022-11-25T20:32:21.304Z,21.13
2022-11-25T20:34:48.168Z,20.50
2022-11-25T20:37:16.265Z,19.27
2022-11-25T20:39:44.111Z,19.42
2022-11-25T20:42:12.360Z,22.15
2022-11-25T20:44:39.145Z,20.35
2022-11-25T20:47:13.408Z,18.80
2022-11-25T20:49:44.281Z,20.70
2022-11-25T20:54:58.181Z,20.30
2022-11-25T20:57:25.644Z,18.70
2022-11-25T20:59:51.978Z,21.83
2022-11-25T21:02:18.591Z,19.65
2022-11-25T21:04:45.046Z,22.98
2022-11-25T21:07:16.394Z,22.00
2022-11-25T21:09:43.591Z,22.58
2022-11-25T21:12:19.580Z,19.23
2022-11-25T21:14:47.718Z,21.60
2022-11-25T21:17:14.368Z,19.63
2022-11-25T21:19:40.762Z,18.15
2022-11-25T21:22:10.485Z,18.95
2022-11-25T21:24:40.859Z,21.70
2022-11-25T21:27:14.462Z,18.95
2022-11-25T21:29:43.477Z,20.88
2022-11-25T21:32:26.387Z,22.98
2022-11-25T21:34:54.747Z,24.40
2022-11-25T21:37:30.895Z,21.60
2022-11-25T21:39:58.357Z,23.10
2022-11-25T21:42:25.480Z,21.58
2022-11-25T21:44:52.536Z,22.88
2022-11-25T21:47:24.240Z,23.02
2022-11-25T21:49:52.461Z,24.15
2022-11-25T21:52:19.318Z,21.42
2022-11-25T21:54:45.916Z,18.15
2022-11-25T21:57:23.001Z,17.42
2022-11-25T21:59:49.464Z,16.30
2022-11-25T22:02:18.504Z,15.35
2022-11-25T22:04:46.034Z,16.65
2022-11-25T22:07:12.406Z,15.55
2022-11-25T22:09:40.386Z,16.05
2022-11-25T22:12:17.786Z,14.70
2022-11-25T22:14:44.431Z,15.45
2022-11-25T22:17:17.119Z,17.88
2022-11-25T22:19:45.146Z,18.20
2022-11-25T22:22:16.645Z,17.38
2022-11-25T22:24:45.370Z,17.58
2022-11-25T22:27:25.704Z,19.17
2022-11-25T22:29:52.819Z,18.25
2022-11-25T22:32:19.171Z,18.23
2022-11-25T22:34:45.988Z,17.15
2022-11-25T22:37:23.254Z,16.90
2022-11-25T22:39:50.098Z,17.85
2022-11-25T22:42:37.453Z,17.88
2022-11-25T22:45:07.948Z,17.33
2022-11-25T22:47:45.602Z,16.63
2022-11-25T22:50:29.052Z,18.48
2022-11-25T22:52:56.104Z,19.23
2022-11-25T22:55:28.652Z,15.52
2022-11-25T22:57:57.220Z,17.00
2022-11-25T23:00:27.858Z,16.02
2022-11-25T23:02:56.812Z,15.07
2022-11-25T23:05:33.084Z,16.98
2022-11-25T23:08:09.939Z,14.30
2022-11-25T23:10:36.407Z,15.43
2022-11-25T23:13:02.769Z,13.90
2022-11-25T23:15:31.945Z,13.38
2022-11-25T23:18:00.861Z,14.02
2022-11-25T23:20:37.976Z,14.23
2022-11-25T23:23:20.379Z,14.88
2022-11-25T23:25:47.743Z,18.60
2022-11-25T23:28:14.860Z,19.05
2022-11-25T23:30:47.030Z,18.00
2022-11-25T23:33:39.673Z,18.38
2022-11-25T23:36:18.177Z,18.50
2022-11-25T23:38:49.433Z,17.73
2022-11-25T23:41:26.962Z,18.20
2022-11-25T23:43:53.624Z,19.50
2022-11-25T23:46:23.783Z,17.27
2022-11-25T23:48:57.177Z,16.38
2022-11-25T23:51:25.091Z,18.83
2022-11-25T23:53:54.666Z,16.85
2022-11-25T23:56:21.488Z,18.10
2022-11-25T23:58:47.966Z,17.90
